Nazca, Peru
Current Conditions -  °F | °C
As of 10:00 AM on Wednesday 22 Oct 2014 (Local Time) from SPSO Reporting Station
Overcast Overcast  
Wind Chill: 64°   Ceiling: 1200
Heat Index: 64°   Visibility: 6mi
Dew Point: 61°   Wind: 8mph
Humidity: 88%   Direction: 310°NW
Pressure: 29.94"   Gusts: NA
Location:  14.83°S, 74.94°W
Report Text: SPSO 221500Z 31007KT 9999 SCT009 OVC012 18/16 Q1014 RMK BIRDHAZARD RWY 22/04 PP000
Loading
Personal Weather Stations






























Interactive Weather Map
Tropical Storm Tracking
New forecast layout! Learn more

10-Day Weather Forecast

Advertisements
Track Severe Weather on mobile